Time;durP1;ratioP1;P1;durP2;ratioP2;P2;SDS_P1;SDS_P2;PMS_P1;PMS_P2;Temp;Humidity;BMP_temperature;BMP_pressure;BME280_temperature;BME280_humidity;BME280_pressure;Samples;Min_cycle;Max_cycle;Signal;HPM_P1;HPM_P2
2021/05/03 00:00:01;;;;;;;;;;;9.60;59.60;;;;;;4286538;33;44979;-71
2021/05/03 00:02:27;;;;;;;;;;;9.60;59.50;;;;;;4273743;33;38840;-71
2021/05/03 00:04:54;;;;;;;;;;;9.60;59.60;;;;;;4286962;33;41461;-71
2021/05/03 00:07:20;;;;;;;;;;;9.60;59.60;;;;;;4286494;33;43619;-71
2021/05/03 00:09:47;;;;;;;;;;;9.60;59.70;;;;;;4286721;33;43619;-71
2021/05/03 00:12:13;;;;;;;;;;;9.60;59.70;;;;;;4287057;33;44238;-71
2021/05/03 00:14:40;;;;;;;;;;;9.50;59.60;;;;;;4286469;33;44678;-71
2021/05/03 00:17:06;;;;;;;;;;;9.60;59.70;;;;;;4286869;33;44675;-71
2021/05/03 00:19:34;;;;;;;;;;;9.50;59.70;;;;;;4286363;33;44708;-71
2021/05/03 00:22:01;;;;;;;;;;;9.50;59.70;;;;;;4287636;33;43566;-71
2021/05/03 00:24:28;;;;;;;;;;;9.50;59.70;;;;;;4289398;33;43486;-71
2021/05/03 00:26:54;;;;;;;;;;;9.50;59.80;;;;;;4289631;33;43368;-71
2021/05/03 00:29:21;;;;;;;;;;;9.40;59.70;;;;;;4276311;33;44517;-71
2021/05/03 00:31:48;;;;;;;;;;;9.40;59.80;;;;;;4289476;33;43649;-71
2021/05/03 00:34:14;;;;;;;;;;;9.40;59.90;;;;;;4289434;33;44148;-70
2021/05/03 00:36:41;;;;;;;;;;;9.40;59.90;;;;;;4288999;33;44366;-71
2021/05/03 00:39:08;;;;;;;;;;;9.40;59.90;;;;;;4275927;33;43420;-70
2021/05/03 00:41:35;;;;;;;;;;;9.40;59.90;;;;;;4289522;33;44480;-71
2021/05/03 00:44:02;;;;;;;;;;;9.30;60.00;;;;;;4276547;33;44327;-70
2021/05/03 00:46:28;;;;;;;;;;;9.30;60.00;;;;;;4289250;33;44595;-71
2021/05/03 00:48:55;;;;;;;;;;;9.30;60.10;;;;;;4289321;33;44674;-71
2021/05/03 00:51:22;;;;;;;;;;;9.30;60.10;;;;;;4288841;33;43656;-71
2021/05/03 00:53:48;;;;;;;;;;;9.30;60.20;;;;;;4276076;33;43457;-71
2021/05/03 00:56:15;;;;;;;;;;;9.20;60.20;;;;;;4275810;33;44871;-71
2021/05/03 00:58:43;;;;;;;;;;;9.30;60.30;;;;;;4288962;33;41216;-71
2021/05/03 01:01:09;;;;;;;;;;;9.20;60.40;;;;;;4288643;33;44699;-71
2021/05/03 01:03:36;;;;;;;;;;;9.20;60.50;;;;;;4288709;33;43861;-70
2021/05/03 01:06:03;;;;;;;;;;;9.20;60.50;;;;;;4289112;33;26005;-71
2021/05/03 01:08:29;;;;;;;;;;;9.20;60.60;;;;;;4275604;33;40725;-71
2021/05/03 01:10:56;;;;;;;;;;;9.20;60.70;;;;;;4288834;33;43303;-71
2021/05/03 01:13:23;;;;;;;;;;;9.20;60.80;;;;;;4288971;33;44682;-70
2021/05/03 01:15:49;;;;;;;;;;;9.10;60.70;;;;;;4275923;33;44528;-71
2021/05/03 01:18:16;;;;;;;;;;;9.10;60.80;;;;;;4276668;33;20042;-71
2021/05/03 01:20:42;;;;;;;;;;;9.10;60.80;;;;;;4288559;33;38278;-70
2021/05/03 01:23:09;;;;;;;;;;;9.10;60.90;;;;;;4288756;33;30421;-70
2021/05/03 01:25:38;;;;;;;;;;;9.10;60.90;;;;;;4288756;33;43374;-70
2021/05/03 01:28:06;;;;;;;;;;;9.10;60.90;;;;;;4275951;33;44791;-70
2021/05/03 01:30:34;;;;;;;;;;;9.10;61.00;;;;;;4288686;33;44695;-70
2021/05/03 01:33:00;;;;;;;;;;;9.00;61.00;;;;;;4287930;33;43502;-71
2021/05/03 01:35:27;;;;;;;;;;;9.00;61.10;;;;;;4288072;33;43566;-70
2021/05/03 01:37:55;;;;;;;;;;;9.00;61.10;;;;;;4288565;33;38860;-70
2021/05/03 01:40:22;;;;;;;;;;;9.00;61.00;;;;;;4288611;33;43339;-70
2021/05/03 01:42:49;;;;;;;;;;;9.00;61.10;;;;;;4275369;33;44700;-70
2021/05/03 01:45:18;;;;;;;;;;;9.00;61.10;;;;;;4288886;33;30034;-70
2021/05/03 01:47:45;;;;;;;;;;;9.00;61.20;;;;;;4275112;33;43436;-70
2021/05/03 01:50:12;;;;;;;;;;;9.00;61.30;;;;;;4288174;33;43505;-70
2021/05/03 01:52:40;;;;;;;;;;;9.00;61.40;;;;;;4288517;33;43357;-70
2021/05/03 01:55:07;;;;;;;;;;;8.90;61.40;;;;;;4275417;33;44021;-70
2021/05/03 01:57:34;;;;;;;;;;;8.90;61.40;;;;;;4287935;33;41850;-70
2021/05/03 02:00:00;;;;;;;;;;;9.00;61.60;;;;;;4288081;33;43088;-70
2021/05/03 02:02:27;;;;;;;;;;;8.90;61.60;;;;;;4287867;33;44683;-70
2021/05/03 02:04:54;;;;;;;;;;;8.90;61.60;;;;;;4288299;33;43960;-71
2021/05/03 02:07:20;;;;;;;;;;;8.90;61.70;;;;;;4287703;33;44332;-70
2021/05/03 02:09:47;;;;;;;;;;;8.90;61.80;;;;;;4287737;33;43729;-71
2021/05/03 02:12:14;;;;;;;;;;;8.90;61.90;;;;;;4263193;33;43307;-70
2021/05/03 02:14:41;;;;;;;;;;;8.90;62.00;;;;;;4288123;33;44832;-71
2021/05/03 02:17:08;;;;;;;;;;;8.90;62.10;;;;;;4263013;33;45432;-71
2021/05/03 02:19:35;;;;;;;;;;;8.90;62.10;;;;;;4287586;33;43619;-71
2021/05/03 02:22:02;;;;;;;;;;;8.90;62.10;;;;;;4263271;33;42154;-70
2021/05/03 02:24:29;;;;;;;;;;;8.90;62.20;;;;;;4288008;33;44695;-70
2021/05/03 02:26:56;;;;;;;;;;;8.80;62.20;;;;;;4275064;33;39688;-70
2021/05/03 02:29:22;;;;;;;;;;;8.80;62.30;;;;;;4274419;33;45964;-70
2021/05/03 02:31:49;;;;;;;;;;;8.80;62.30;;;;;;4287476;33;44132;-71
2021/05/03 02:34:16;;;;;;;;;;;8.80;62.30;;;;;;4275198;33;40155;-70
2021/05/03 02:36:42;;;;;;;;;;;8.80;62.40;;;;;;4287669;33;41177;-70
2021/05/03 02:39:09;;;;;;;;;;;8.80;62.60;;;;;;4274638;33;43345;-70
2021/05/03 02:41:36;;;;;;;;;;;8.80;62.70;;;;;;4274292;33;44422;-71
2021/05/03 02:44:03;;;;;;;;;;;8.70;62.60;;;;;;4287391;33;42620;-70
2021/05/03 02:46:29;;;;;;;;;;;8.70;62.80;;;;;;4287443;33;44678;-70
2021/05/03 02:48:56;;;;;;;;;;;8.70;62.90;;;;;;4287439;33;43341;-70
2021/05/03 02:51:23;;;;;;;;;;;8.70;63.00;;;;;;4287625;33;38750;-70
2021/05/03 02:53:49;;;;;;;;;;;8.70;63.00;;;;;;4287143;33;44674;-70
2021/05/03 02:56:16;;;;;;;;;;;8.70;63.10;;;;;;4287546;33;44982;-70
2021/05/03 02:58:42;;;;;;;;;;;8.60;63.10;;;;;;4288865;33;20017;-70
2021/05/03 03:01:09;;;;;;;;;;;8.70;63.20;;;;;;4287224;33;44037;-70
2021/05/03 03:03:36;;;;;;;;;;;8.60;63.20;;;;;;4263760;33;20019;-70
2021/05/03 03:06:02;;;;;;;;;;;8.60;63.30;;;;;;4286998;33;42791;-70
2021/05/03 03:08:29;;;;;;;;;;;8.60;63.40;;;;;;4273940;33;43515;-70
2021/05/03 03:10:56;;;;;;;;;;;8.50;63.50;;;;;;4286955;33;42216;-70
2021/05/03 03:13:23;;;;;;;;;;;8.50;63.50;;;;;;4287245;33;44320;-70
2021/05/03 03:15:49;;;;;;;;;;;8.50;63.70;;;;;;4287481;33;45028;-70
2021/05/03 03:18:17;;;;;;;;;;;8.50;63.70;;;;;;4286869;33;42407;-70
2021/05/03 03:20:44;;;;;;;;;;;8.40;63.80;;;;;;4286865;33;44352;-70
2021/05/03 03:23:10;;;;;;;;;;;8.40;63.80;;;;;;4274462;33;44329;-70
2021/05/03 03:25:37;;;;;;;;;;;8.40;64.00;;;;;;4274246;33;44663;-71
2021/05/03 03:28:04;;;;;;;;;;;8.40;64.10;;;;;;4287577;33;24592;-70
2021/05/03 03:30:30;;;;;;;;;;;8.30;64.10;;;;;;4288106;33;20023;-70
2021/05/03 03:32:57;;;;;;;;;;;8.30;64.20;;;;;;4287865;33;20021;-70
2021/05/03 03:35:25;;;;;;;;;;;8.30;64.30;;;;;;4274496;33;20013;-70
2021/05/03 03:37:53;;;;;;;;;;;8.30;64.40;;;;;;4287975;33;20025;-70
2021/05/03 03:40:20;;;;;;;;;;;8.30;64.40;;;;;;4275221;33;20066;-70
2021/05/03 03:42:47;;;;;;;;;;;8.30;64.50;;;;;;4287588;33;20420;-70
2021/05/03 03:45:14;;;;;;;;;;;8.20;64.50;;;;;;4275149;33;20006;-70
2021/05/03 03:47:41;;;;;;;;;;;8.20;64.50;;;;;;4288021;33;20010;-70
2021/05/03 03:50:08;;;;;;;;;;;8.20;64.60;;;;;;4288059;33;20076;-70
2021/05/03 03:52:35;;;;;;;;;;;8.10;64.60;;;;;;4287306;33;20021;-71
2021/05/03 03:55:02;;;;;;;;;;;8.10;64.70;;;;;;4274233;33;20058;-70
2021/05/03 03:57:29;;;;;;;;;;;8.10;64.60;;;;;;4276038;33;20021;-70
2021/05/03 03:59:58;;;;;;;;;;;8.10;64.60;;;;;;4277720;33;20015;-70
2021/05/03 04:02:24;;;;;;;;;;;8.10;64.60;;;;;;4290350;33;20014;-70
2021/05/03 04:07:37;;;;;;;;;;;8.10;64.70;;;;;;4290627;33;20063;-70
2021/05/03 04:26:18;;;;;;;;;;;8.00;64.60;;;;;;4277611;33;19999;-70
2021/05/03 04:28:46;;;;;;;;;;;8.00;64.70;;;;;;4277725;33;19999;-70
2021/05/03 04:31:12;;;;;;;;;;;8.00;64.80;;;;;;4290723;33;20006;-70
2021/05/03 04:33:39;;;;;;;;;;;7.90;64.80;;;;;;4290486;33;20006;-70
2021/05/03 04:36:07;;;;;;;;;;;7.80;65.00;;;;;;4277466;33;20045;-70
2021/05/03 04:38:33;;;;;;;;;;;7.80;65.30;;;;;;4290292;33;20025;-70
2021/05/03 04:41:00;;;;;;;;;;;7.80;65.50;;;;;;4276777;33;19999;-70
2021/05/03 04:43:27;;;;;;;;;;;7.70;65.60;;;;;;4290412;33;20027;-71
2021/05/03 04:45:54;;;;;;;;;;;7.70;65.80;;;;;;4290014;33;20002;-70
2021/05/03 04:48:20;;;;;;;;;;;7.60;65.90;;;;;;4289755;33;20023;-70
2021/05/03 04:50:47;;;;;;;;;;;7.60;66.00;;;;;;4290118;33;20424;-70
2021/05/03 04:53:13;;;;;;;;;;;7.60;66.10;;;;;;4276868;33;20014;-70
2021/05/03 04:55:40;;;;;;;;;;;7.60;66.20;;;;;;4277376;33;20450;-70
2021/05/03 04:58:07;;;;;;;;;;;7.60;66.20;;;;;;4290265;33;20002;-70
2021/05/03 05:00:34;;;;;;;;;;;7.60;66.40;;;;;;4276735;33;20385;-70
2021/05/03 05:03:01;;;;;;;;;;;7.60;66.40;;;;;;4289176;33;20019;-70
2021/05/03 05:05:28;;;;;;;;;;;7.60;66.60;;;;;;4277276;33;20014;-70
2021/05/03 05:07:55;;;;;;;;;;;7.50;66.70;;;;;;4289733;33;20306;-70
2021/05/03 05:10:22;;;;;;;;;;;7.50;66.80;;;;;;4277007;33;19999;-70
2021/05/03 05:12:50;;;;;;;;;;;7.50;67.00;;;;;;4290045;33;20087;-70
2021/05/03 05:15:17;;;;;;;;;;;7.50;67.00;;;;;;4289567;33;20010;-70
2021/05/03 05:17:45;;;;;;;;;;;7.50;67.00;;;;;;4289754;33;20014;-70
2021/05/03 05:20:12;;;;;;;;;;;7.50;67.00;;;;;;4277236;33;20392;-70
2021/05/03 05:22:39;;;;;;;;;;;7.50;67.30;;;;;;4289910;33;20083;-70
2021/05/03 05:25:06;;;;;;;;;;;7.50;67.50;;;;;;4289104;33;20023;-70
2021/05/03 05:27:33;;;;;;;;;;;7.50;67.50;;;;;;4289079;33;20018;-70
2021/05/03 05:30:00;;;;;;;;;;;7.40;67.60;;;;;;4289571;33;20025;-70
2021/05/03 05:32:27;;;;;;;;;;;7.30;67.90;;;;;;4289322;33;20010;-70
2021/05/03 05:34:53;;;;;;;;;;;7.30;68.40;;;;;;4276289;33;20020;-70
2021/05/03 05:37:20;;;;;;;;;;;7.20;68.70;;;;;;4289534;33;20385;-70
2021/05/03 05:39:46;;;;;;;;;;;7.10;69.00;;;;;;4289340;33;20028;-70
2021/05/03 05:42:13;;;;;;;;;;;7.10;69.20;;;;;;4276612;33;20016;-70
2021/05/03 05:44:39;;;;;;;;;;;7.10;69.50;;;;;;4275915;33;19995;-70
2021/05/03 05:47:06;;;;;;;;;;;7.10;69.50;;;;;;4289366;33;20057;-70
2021/05/03 05:49:34;;;;;;;;;;;7.10;69.60;;;;;;4276341;33;20666;-70
2021/05/03 05:52:00;;;;;;;;;;;7.10;69.70;;;;;;4288812;33;20017;-70
2021/05/03 05:54:27;;;;;;;;;;;7.00;70.00;;;;;;4275976;33;19999;-70
2021/05/03 05:56:54;;;;;;;;;;;7.00;70.40;;;;;;4289085;33;20253;-70
2021/05/03 05:59:22;;;;;;;;;;;7.00;70.40;;;;;;4276237;33;20019;-70
2021/05/03 06:01:49;;;;;;;;;;;7.00;70.50;;;;;;4275286;33;20014;-70
2021/05/03 06:04:16;;;;;;;;;;;7.00;70.70;;;;;;4276238;33;20057;-70
2021/05/03 06:06:43;;;;;;;;;;;7.00;70.90;;;;;;4289092;33;20092;-70
2021/05/03 06:09:09;;;;;;;;;;;7.00;70.80;;;;;;4289210;33;20070;-70
2021/05/03 06:11:36;;;;;;;;;;;7.00;71.10;;;;;;4289353;33;20017;-70
2021/05/03 06:14:03;;;;;;;;;;;7.00;71.00;;;;;;4288994;33;20031;-70
2021/05/03 06:16:29;;;;;;;;;;;7.00;71.00;;;;;;4288840;33;20081;-70
2021/05/03 06:18:56;;;;;;;;;;;7.10;71.00;;;;;;4288845;33;20021;-70
2021/05/03 06:21:22;;;;;;;;;;;7.10;71.20;;;;;;4288564;33;20018;-70
2021/05/03 06:23:49;;;;;;;;;;;7.10;71.10;;;;;;4288879;33;20111;-70
2021/05/03 06:26:16;;;;;;;;;;;7.10;70.90;;;;;;4288839;33;20054;-70
2021/05/03 06:28:42;;;;;;;;;;;7.20;71.10;;;;;;4289181;33;20010;-70
2021/05/03 06:31:09;;;;;;;;;;;7.20;71.00;;;;;;4275229;33;20322;-70
2021/05/03 06:33:36;;;;;;;;;;;7.30;71.00;;;;;;4288577;33;20409;-70
2021/05/03 06:36:03;;;;;;;;;;;7.30;71.10;;;;;;4275452;33;20546;-70
2021/05/03 06:38:30;;;;;;;;;;;7.30;71.90;;;;;;4288435;33;22501;-70
2021/05/03 06:40:56;;;;;;;;;;;7.40;71.00;;;;;;4288146;33;20018;-70
2021/05/03 06:43:23;;;;;;;;;;;7.40;71.00;;;;;;4275589;33;20074;-69
2021/05/03 06:45:49;;;;;;;;;;;7.40;71.10;;;;;;4288521;33;20086;-70
2021/05/03 06:48:17;;;;;;;;;;;7.50;71.20;;;;;;4275300;33;20022;-70
2021/05/03 06:50:45;;;;;;;;;;;7.50;71.30;;;;;;4275375;33;20007;-70
2021/05/03 06:53:12;;;;;;;;;;;7.50;71.20;;;;;;4287658;33;43290;-70
2021/05/03 06:55:41;;;;;;;;;;;7.60;70.90;;;;;;4287480;33;44333;-70
2021/05/03 06:58:08;;;;;;;;;;;7.60;70.80;;;;;;4287664;33;44290;-69
2021/05/03 07:00:39;;;;;;;;;;;7.70;70.90;;;;;;4287011;33;44262;-70
2021/05/03 07:03:09;;;;;;;;;;;7.70;70.80;;;;;;4274312;33;35139;-70
2021/05/03 07:05:36;;;;;;;;;;;7.80;70.60;;;;;;4287030;33;44986;-70
2021/05/03 07:08:03;;;;;;;;;;;7.80;70.60;;;;;;4287414;33;44664;-69
2021/05/03 07:10:31;;;;;;;;;;;7.80;70.80;;;;;;4287389;33;43726;-69
2021/05/03 07:12:57;;;;;;;;;;;7.90;71.10;;;;;;4287390;33;44313;-69
2021/05/03 07:15:24;;;;;;;;;;;7.90;71.10;;;;;;4287331;33;44836;-69
2021/05/03 07:17:51;;;;;;;;;;;8.00;71.00;;;;;;4286955;33;43530;-70
2021/05/03 07:20:17;;;;;;;;;;;8.00;70.60;;;;;;4274207;33;43669;-69
2021/05/03 07:22:44;;;;;;;;;;;8.00;70.60;;;;;;4273705;33;45243;-70
2021/05/03 07:25:12;;;;;;;;;;;8.10;70.80;;;;;;4286807;33;43669;-70
2021/05/03 07:27:40;;;;;;;;;;;8.10;70.60;;;;;;4288248;33;20065;-70
2021/05/03 07:30:08;;;;;;;;;;;8.10;70.40;;;;;;4274266;33;45005;-70
2021/05/03 07:32:35;;;;;;;;;;;8.20;70.70;;;;;;4286956;33;43664;-70
2021/05/03 07:35:02;;;;;;;;;;;8.20;71.00;;;;;;4273890;33;42161;-70
2021/05/03 07:37:29;;;;;;;;;;;8.30;70.60;;;;;;4286801;33;44537;-70
2021/05/03 07:40:00;;;;;;;;;;;8.30;70.70;;;;;;4287271;33;42055;-70
2021/05/03 07:42:27;;;;;;;;;;;8.40;70.70;;;;;;4274223;33;43379;-70
2021/05/03 07:45:12;;;;;;;;;;;8.40;70.70;;;;;;4286880;33;43299;-70
2021/05/03 07:47:39;;;;;;;;;;;8.40;70.80;;;;;;4286713;33;43656;-70
2021/05/03 07:50:06;;;;;;;;;;;8.50;70.60;;;;;;4273583;33;43342;-70
2021/05/03 07:52:33;;;;;;;;;;;8.50;70.80;;;;;;4273958;33;43620;-70
2021/05/03 07:54:59;;;;;;;;;;;8.50;70.90;;;;;;4286580;33;44065;-70
2021/05/03 07:57:26;;;;;;;;;;;8.60;70.90;;;;;;4286996;33;44302;-69
2021/05/03 07:59:53;;;;;;;;;;;8.60;70.30;;;;;;4287149;33;44478;-70
2021/05/03 08:02:19;;;;;;;;;;;8.60;70.30;;;;;;4286445;33;43224;-70
2021/05/03 08:04:48;;;;;;;;;;;8.70;70.50;;;;;;4273779;33;43289;-70
2021/05/03 08:07:15;;;;;;;;;;;8.70;70.20;;;;;;4273781;33;42353;-70
2021/05/03 08:09:41;;;;;;;;;;;8.70;69.90;;;;;;4287003;33;43254;-70
2021/05/03 08:12:11;;;;;;;;;;;8.80;70.00;;;;;;4286496;33;44453;-70
2021/05/03 08:14:40;;;;;;;;;;;8.80;69.80;;;;;;4287134;33;44396;-69
2021/05/03 08:17:09;;;;;;;;;;;8.80;69.80;;;;;;4287153;33;42344;-70
2021/05/03 08:19:36;;;;;;;;;;;8.90;69.80;;;;;;4286827;33;38499;-70
2021/05/03 08:22:04;;;;;;;;;;;8.90;69.60;;;;;;4286727;33;43368;-70
2021/05/03 08:24:31;;;;;;;;;;;8.90;69.60;;;;;;4286835;33;44551;-70
2021/05/03 08:26:58;;;;;;;;;;;8.90;69.50;;;;;;4273339;33;45232;-70
2021/05/03 08:29:25;;;;;;;;;;;9.00;69.50;;;;;;4287402;33;25912;-70
2021/05/03 08:31:51;;;;;;;;;;;9.00;69.40;;;;;;4287158;33;20049;-70
2021/05/03 08:34:18;;;;;;;;;;;9.00;69.50;;;;;;4287952;33;20392;-70
2021/05/03 08:36:45;;;;;;;;;;;9.00;69.50;;;;;;4287739;33;20006;-70
2021/05/03 08:39:12;;;;;;;;;;;9.10;69.50;;;;;;4287536;33;20015;-70
2021/05/03 08:41:39;;;;;;;;;;;9.10;69.40;;;;;;4274780;33;20018;-70
2021/05/03 08:44:07;;;;;;;;;;;9.10;69.70;;;;;;4275813;33;21031;-70
2021/05/03 08:46:39;;;;;;;;;;;9.20;69.60;;;;;;4289633;33;20025;-70
2021/05/03 08:51:50;;;;;;;;;;;9.20;69.70;;;;;;4290286;33;20024;-70
2021/05/03 08:56:47;;;;;;;;;;;9.30;70.00;;;;;;4289138;33;43354;-70
2021/05/03 08:59:14;;;;;;;;;;;9.40;70.00;;;;;;4289335;33;44630;-70
2021/05/03 09:01:48;;;;;;;;;;;9.40;69.90;;;;;;4288916;33;43640;-70
2021/05/03 09:04:15;;;;;;;;;;;9.50;70.00;;;;;;4289927;33;20028;-70
2021/05/03 09:07:01;;;;;;;;;;;9.50;69.60;;;;;;4276863;33;20006;-70
2021/05/03 09:09:32;;;;;;;;;;;9.50;69.60;;;;;;4276773;33;20073;-69
2021/05/03 09:12:00;;;;;;;;;;;9.50;69.40;;;;;;4289813;33;20019;-70
2021/05/03 09:14:26;;;;;;;;;;;9.60;69.80;;;;;;4276674;33;20003;-70
2021/05/03 09:16:53;;;;;;;;;;;9.60;69.90;;;;;;4289682;33;20405;-70
2021/05/03 09:19:20;;;;;;;;;;;9.60;69.40;;;;;;4289726;33;20070;-70
2021/05/03 09:21:47;;;;;;;;;;;9.60;69.20;;;;;;4289484;33;20021;-70
2021/05/03 09:24:16;;;;;;;;;;;9.70;69.20;;;;;;4289250;33;20033;-70
2021/05/03 09:26:49;;;;;;;;;;;9.70;69.20;;;;;;4289454;33;20049;-70
2021/05/03 09:29:28;;;;;;;;;;;9.70;69.40;;;;;;4289542;33;20374;-70
2021/05/03 09:32:02;;;;;;;;;;;9.70;69.50;;;;;;4276462;33;20021;-70
2021/05/03 09:34:33;;;;;;;;;;;9.70;69.40;;;;;;4289544;33;20017;-70
2021/05/03 09:37:16;;;;;;;;;;;9.80;69.50;;;;;;4289713;33;20089;-70
2021/05/03 09:39:44;;;;;;;;;;;9.80;69.20;;;;;;4288933;33;20011;-70
2021/05/03 09:42:11;;;;;;;;;;;9.80;69.20;;;;;;4288432;33;43660;-70
2021/05/03 09:44:38;;;;;;;;;;;9.80;69.10;;;;;;4288300;33;44350;-70
2021/05/03 09:47:05;;;;;;;;;;;9.90;69.20;;;;;;4288033;33;44690;-70
2021/05/03 09:49:32;;;;;;;;;;;9.90;69.20;;;;;;4288384;33;44395;-70
2021/05/03 09:52:00;;;;;;;;;;;10.00;69.30;;;;;;4288617;33;40260;-70
2021/05/03 09:54:30;;;;;;;;;;;10.00;68.70;;;;;;4274161;33;41761;-70
2021/05/03 09:57:09;;;;;;;;;;;10.00;69.40;;;;;;4274841;33;45163;-70
2021/05/03 09:59:40;;;;;;;;;;;10.10;68.60;;;;;;4275132;33;43788;-70
2021/05/03 10:02:26;;;;;;;;;;;10.10;68.40;;;;;;4288992;33;20022;-69
2021/05/03 10:04:54;;;;;;;;;;;10.20;68.40;;;;;;4288644;33;32716;-70
2021/05/03 10:07:22;;;;;;;;;;;10.20;68.30;;;;;;4275544;33;40290;-70
2021/05/03 10:09:52;;;;;;;;;;;10.20;68.00;;;;;;4287817;33;44326;-70
2021/05/03 10:12:19;;;;;;;;;;;10.30;67.70;;;;;;4288433;33;43343;-70
2021/05/03 10:14:46;;;;;;;;;;;10.30;67.30;;;;;;4288261;33;41055;-69
2021/05/03 10:17:14;;;;;;;;;;;10.30;66.90;;;;;;4263311;33;44233;-70
2021/05/03 10:19:42;;;;;;;;;;;10.40;67.20;;;;;;4287579;33;43257;-70
2021/05/03 10:22:15;;;;;;;;;;;10.40;67.00;;;;;;4275288;33;43279;-70
2021/05/03 10:24:43;;;;;;;;;;;10.50;67.10;;;;;;4274767;33;34006;-70
2021/05/03 10:27:11;;;;;;;;;;;10.50;66.70;;;;;;4275175;33;44321;-70
2021/05/03 10:29:41;;;;;;;;;;;10.60;66.20;;;;;;4287499;33;43661;-70
2021/05/03 10:32:12;;;;;;;;;;;10.70;66.00;;;;;;4274642;33;41994;-70
2021/05/03 10:35:01;;;;;;;;;;;10.70;65.40;;;;;;4287555;33;44331;-70
2021/05/03 10:37:34;;;;;;;;;;;10.70;66.00;;;;;;4287853;33;44471;-70
2021/05/03 10:40:02;;;;;;;;;;;10.80;65.60;;;;;;4287929;33;44370;-70
2021/05/03 10:42:29;;;;;;;;;;;10.90;66.00;;;;;;4287714;33;43664;-70
2021/05/03 10:45:22;;;;;;;;;;;10.90;65.20;;;;;;4287564;33;43656;-70
2021/05/03 10:47:55;;;;;;;;;;;11.00;65.20;;;;;;4286362;33;43232;-70
2021/05/03 10:50:48;;;;;;;;;;;11.00;64.70;;;;;;4288144;33;27316;-70
2021/05/03 10:53:41;;;;;;;;;;;11.00;64.60;;;;;;4274439;33;46830;-70
2021/05/03 10:56:09;;;;;;;;;;;11.00;64.40;;;;;;4275722;33;20417;-70
2021/05/03 10:58:54;;;;;;;;;;;11.00;64.60;;;;;;4288455;33;20024;-70
2021/05/03 11:01:21;;;;;;;;;;;11.00;64.30;;;;;;4288226;33;21246;-70
2021/05/03 11:03:54;;;;;;;;;;;11.10;64.50;;;;;;4288144;33;20006;-70
2021/05/03 11:06:36;;;;;;;;;;;11.10;64.10;;;;;;4288212;33;20388;-70
2021/05/03 11:09:42;;;;;;;;;;;11.10;64.60;;;;;;4275377;33;20443;-70
2021/05/03 11:12:09;;;;;;;;;;;11.10;63.70;;;;;;4260627;33;20013;-71
2021/05/03 11:15:11;;;;;;;;;;;11.20;64.10;;;;;;4287298;33;44568;-70
2021/05/03 11:17:58;;;;;;;;;;;11.10;63.60;;;;;;4287894;33;20014;-70
2021/05/03 11:20:24;;;;;;;;;;;11.10;63.60;;;;;;4274697;33;20017;-70
2021/05/03 11:25:31;;;;;;;;;;;11.30;63.20;;;;;;4288202;33;22350;-70
2021/05/03 11:28:17;;;;;;;;;;;11.30;62.70;;;;;;4288100;33;20022;-70
2021/05/03 11:30:48;;;;;;;;;;;11.30;62.20;;;;;;4275623;33;20058;-70
2021/05/03 11:33:25;;;;;;;;;;;11.40;62.40;;;;;;4288389;33;20019;-70
2021/05/03 11:36:05;;;;;;;;;;;11.40;61.70;;;;;;4275394;33;20021;-70
2021/05/03 11:38:48;;;;;;;;;;;11.40;60.60;;;;;;4275364;33;20404;-70
2021/05/03 11:46:34;;;;;;;;;;;11.50;62.30;;;;;;4287602;33;20022;-71
2021/05/03 11:49:13;;;;;;;;;;;11.50;62.00;;;;;;4274670;33;20013;-71
2021/05/03 11:51:46;;;;;;;;;;;11.50;61.50;;;;;;4287880;33;20085;-71
2021/05/03 11:54:29;;;;;;;;;;;11.50;60.70;;;;;;4287284;33;43363;-70
2021/05/03 11:57:04;;;;;;;;;;;11.50;59.90;;;;;;4287027;33;43359;-71
2021/05/03 11:59:31;;;;;;;;;;;11.60;61.00;;;;;;4286965;33;43449;-71
2021/05/03 12:02:07;;;;;;;;;;;11.50;61.50;;;;;;4286892;33;40697;-71
2021/05/03 12:04:36;;;;;;;;;;;11.50;61.40;;;;;;4286569;33;42779;-71
2021/05/03 12:07:14;;;;;;;;;;;11.50;60.60;;;;;;4286815;33;43318;-71
2021/05/03 12:09:41;;;;;;;;;;;11.50;61.00;;;;;;4287741;33;20084;-71
2021/05/03 12:12:08;;;;;;;;;;;11.50;61.10;;;;;;4274157;33;20007;-71
2021/05/03 12:14:39;;;;;;;;;;;11.40;60.20;;;;;;4287963;33;20014;-71
2021/05/03 12:17:15;;;;;;;;;;;11.40;60.90;;;;;;4288058;33;20404;-71
2021/05/03 12:19:43;;;;;;;;;;;11.40;60.70;;;;;;4290687;33;20015;-71
2021/05/03 12:22:09;;;;;;;;;;;11.40;60.50;;;;;;4290271;33;21601;-71
2021/05/03 12:24:41;;;;;;;;;;;11.40;60.70;;;;;;4290580;33;20003;-71
2021/05/03 12:27:07;;;;;;;;;;;11.40;61.00;;;;;;4290489;33;20021;-71
2021/05/03 12:29:35;;;;;;;;;;;11.40;60.80;;;;;;4290196;33;20022;-71
2021/05/03 12:32:07;;;;;;;;;;;11.40;60.90;;;;;;4290607;33;20010;-71
2021/05/03 12:34:38;;;;;;;;;;;11.40;61.00;;;;;;4290463;33;20023;-71
2021/05/03 12:37:14;;;;;;;;;;;11.40;61.10;;;;;;4290304;33;20053;-71
2021/05/03 12:39:55;;;;;;;;;;;11.40;60.80;;;;;;4290684;33;20058;-71
2021/05/03 12:42:22;;;;;;;;;;;11.40;60.20;;;;;;4290465;33;20043;-71
2021/05/03 12:44:52;;;;;;;;;;;11.40;60.20;;;;;;4277581;33;20010;-71
2021/05/03 12:47:24;;;;;;;;;;;11.50;60.30;;;;;;4290210;33;20010;-71
2021/05/03 12:49:57;;;;;;;;;;;11.50;60.20;;;;;;4277435;33;20074;-71
2021/05/03 12:52:30;;;;;;;;;;;11.50;60.40;;;;;;4289997;33;20022;-71
2021/05/03 12:55:14;;;;;;;;;;;11.50;60.20;;;;;;4265422;33;19995;-71
2021/05/03 12:57:49;;;;;;;;;;;11.60;60.00;;;;;;4276848;33;20074;-71
2021/05/03 13:00:22;;;;;;;;;;;11.50;60.30;;;;;;4290137;33;20007;-71
2021/05/03 13:02:58;;;;;;;;;;;11.50;60.30;;;;;;4265316;33;20428;-71
2021/05/03 13:06:18;;;;;;;;;;;11.50;60.10;;;;;;4289430;33;20027;-71
2021/05/03 13:08:31;;;;;;;;;;;11.60;60.50;;;;;;4283702;33;44348;-71
2021/05/03 13:11:33;;;;;;;;;;;11.60;60.70;;;;;;4290198;33;20006;-71
2021/05/03 13:28:05;;;;;;;;;;;12.10;59.70;;;;;;4288816;33;42082;-71
2021/05/03 13:30:32;;;;;;;;;;;12.10;59.60;;;;;;4288946;33;44203;-70
2021/05/03 13:33:01;;;;;;;;;;;12.10;57.90;;;;;;4276552;33;20018;-70
2021/05/03 13:35:28;;;;;;;;;;;12.10;58.00;;;;;;4275198;33;45200;-71
2021/05/03 13:37:55;;;;;;;;;;;12.20;57.70;;;;;;4288617;33;31903;-71
2021/05/03 13:40:22;;;;;;;;;;;12.20;57.40;;;;;;4288211;33;44728;-71
2021/05/03 13:42:52;;;;;;;;;;;12.20;57.60;;;;;;4288659;33;43668;-71
2021/05/03 13:45:21;;;;;;;;;;;12.20;57.80;;;;;;4275919;33;44576;-71
2021/05/03 13:47:48;;;;;;;;;;;12.20;57.30;;;;;;4275078;33;43059;-70
2021/05/03 13:50:15;;;;;;;;;;;12.20;58.00;;;;;;4275728;33;33759;-70
2021/05/03 13:52:42;;;;;;;;;;;12.20;58.00;;;;;;4288469;33;43660;-71
2021/05/03 13:55:09;;;;;;;;;;;12.20;58.60;;;;;;4288401;33;44599;-70
2021/05/03 13:57:36;;;;;;;;;;;12.30;58.20;;;;;;4287965;33;44263;-70
2021/05/03 14:00:03;;;;;;;;;;;12.30;57.80;;;;;;4287952;33;42460;-70
2021/05/03 14:02:30;;;;;;;;;;;12.30;58.10;;;;;;4287985;33;44045;-70
2021/05/03 14:04:57;;;;;;;;;;;12.30;58.30;;;;;;4287889;33;42375;-70
2021/05/03 14:07:23;;;;;;;;;;;12.40;58.50;;;;;;4287925;33;40784;-70
2021/05/03 14:09:50;;;;;;;;;;;12.30;58.40;;;;;;4287732;33;45479;-71
2021/05/03 14:12:16;;;;;;;;;;;12.40;58.60;;;;;;4287938;33;44638;-70
2021/05/03 14:14:44;;;;;;;;;;;12.40;58.70;;;;;;4288449;33;44480;-71
2021/05/03 14:17:11;;;;;;;;;;;12.30;58.50;;;;;;4274623;33;43747;-71
2021/05/03 14:19:42;;;;;;;;;;;12.30;58.50;;;;;;4287887;33;43626;-71
2021/05/03 14:22:09;;;;;;;;;;;12.30;58.90;;;;;;4287624;33;44168;-71
2021/05/03 14:24:35;;;;;;;;;;;12.30;58.60;;;;;;4287705;33;43676;-71
2021/05/03 14:27:03;;;;;;;;;;;12.30;58.30;;;;;;4288029;33;44603;-71
2021/05/03 14:29:43;;;;;;;;;;;12.20;58.30;;;;;;4287714;33;43304;-71
2021/05/03 14:32:55;;;;;;;;;;;12.20;58.50;;;;;;4288113;33;44313;-71
2021/05/03 14:35:04;;;;;;;;;;;12.20;58.50;;;;;;4284818;33;20489;-71
2021/05/03 14:37:31;;;;;;;;;;;12.20;58.50;;;;;;4288195;33;43921;-71
2021/05/03 14:39:57;;;;;;;;;;;12.20;58.20;;;;;;4287893;33;44356;-71
2021/05/03 14:42:24;;;;;;;;;;;12.20;58.30;;;;;;4287089;33;42788;-71
2021/05/03 14:44:51;;;;;;;;;;;12.30;57.90;;;;;;4288022;33;20069;-71
2021/05/03 14:47:22;;;;;;;;;;;12.30;57.70;;;;;;4288426;33;20372;-71
2021/05/03 14:50:00;;;;;;;;;;;12.30;58.00;;;;;;4288066;33;44258;-71
2021/05/03 14:52:41;;;;;;;;;;;12.40;58.30;;;;;;4275768;33;20412;-71
2021/05/03 14:55:08;;;;;;;;;;;12.40;58.20;;;;;;4288719;33;20409;-71
2021/05/03 14:57:34;;;;;;;;;;;12.40;58.40;;;;;;4287089;33;43633;-71
2021/05/03 15:00:01;;;;;;;;;;;12.40;58.60;;;;;;4274812;33;36937;-71
2021/05/03 15:02:28;;;;;;;;;;;12.40;58.40;;;;;;4287330;33;41975;-71
2021/05/03 15:04:54;;;;;;;;;;;12.40;58.60;;;;;;4274386;33;43650;-71
2021/05/03 15:07:21;;;;;;;;;;;12.40;58.50;;;;;;4287326;33;43312;-71
2021/05/03 15:09:49;;;;;;;;;;;12.40;58.70;;;;;;4287387;33;44258;-71
2021/05/03 15:12:24;;;;;;;;;;;12.40;58.80;;;;;;4288198;33;20045;-71
2021/05/03 15:22:34;;;;;;;;;;;12.50;58.30;;;;;;4287456;33;40494;-72
2021/05/03 15:25:03;;;;;;;;;;;12.50;58.60;;;;;;4287548;33;42891;-71
2021/05/03 15:35:24;;;;;;;;;;;12.50;58.60;;;;;;4287278;33;43672;-71
2021/05/03 15:37:50;;;;;;;;;;;12.50;58.50;;;;;;4286787;33;44472;-71